Time;durP1;ratioP1;P1;durP2;ratioP2;P2;SDS_P1;SDS_P2;PMS_P1;PMS_P2;Temp;Humidity;BMP_temperature;BMP_pressure;BME280_temperature;BME280_humidity;BME280_pressure;Samples;Min_cycle;Max_cycle;Signal;HPM_P1;HPM_P2
2023/08/23 00:01:56;;;;;;;5.43;2.78;;;;;;;15.19;56.24;101964.81;4991357;28;20399;-76
2023/08/23 00:04:22;;;;;;;9.15;3.00;;;;;;;15.03;56.17;101956.72;4994419;28;20046;-76
2023/08/23 00:06:48;;;;;;;5.55;2.80;;;;;;;14.90;56.45;101960.78;4992468;28;20636;-74
2023/08/23 00:09:13;;;;;;;3.50;1.98;;;;;;;14.96;56.61;101960.53;4991488;28;20080;-76
2023/08/23 00:11:39;;;;;;;3.10;2.30;;;;;;;14.96;56.68;101956.09;4988640;28;20029;-75
2023/08/23 00:14:04;;;;;;;4.47;2.20;;;;;;;14.99;56.35;101955.13;4976121;28;20628;-75
2023/08/23 00:16:30;;;;;;;7.80;2.85;;;;;;;14.87;56.43;101955.66;4994870;28;20485;-75
2023/08/23 00:18:56;;;;;;;4.13;2.60;;;;;;;14.71;57.20;101955.41;4978341;28;20694;-75
2023/08/23 00:21:21;;;;;;;5.60;2.55;;;;;;;14.79;56.90;101947.19;4959811;28;20038;-76
2023/08/23 00:23:46;;;;;;;2.05;1.85;;;;;;;14.76;56.85;101941.13;4976504;28;20163;-75
2023/08/23 00:26:13;;;;;;;7.30;2.47;;;;;;;14.82;56.92;101941.84;4994656;28;20488;-75
2023/08/23 00:28:39;;;;;;;5.43;2.38;;;;;;;14.84;56.56;101947.88;4989037;28;20455;-76
2023/08/23 00:31:06;;;;;;;3.80;2.00;;;;;;;14.75;56.95;101952.59;4993614;28;20030;-75
2023/08/23 00:33:33;;;;;;;4.10;2.53;;;;;;;14.72;56.73;101944.84;4977850;28;20038;-76
2023/08/23 00:35:59;;;;;;;2.63;2.28;;;;;;;14.61;56.97;101943.53;4977600;28;20049;-74
2023/08/23 00:38:24;;;;;;;4.45;1.92;;;;;;;14.44;57.38;101945.06;4977464;28;20487;-74
2023/08/23 00:40:50;;;;;;;4.30;2.30;;;;;;;14.38;57.51;101947.91;4964706;28;20665;-75
2023/08/23 00:43:15;;;;;;;2.53;1.55;;;;;;;14.44;57.74;101952.13;4978554;28;20042;-75
2023/08/23 00:45:42;;;;;;;5.68;1.90;;;;;;;14.53;57.55;101946.50;4975341;28;20034;-76
2023/08/23 00:48:11;;;;;;;3.05;2.10;;;;;;;14.47;57.37;101944.09;4978619;28;20535;-74
2023/08/23 00:50:40;;;;;;;3.92;1.75;;;;;;;14.52;57.23;101943.00;4977765;28;20030;-75
2023/08/23 00:53:08;;;;;;;2.83;1.75;;;;;;;14.51;57.47;101951.81;4977886;28;20039;-74
2023/08/23 00:55:35;;;;;;;11.02;2.00;;;;;;;14.41;57.32;101946.97;4981488;28;20030;-74
2023/08/23 00:58:01;;;;;;;3.15;2.25;;;;;;;14.41;57.74;101947.84;4993435;28;20101;-74
2023/08/23 01:00:27;;;;;;;5.18;2.30;;;;;;;14.20;58.31;101953.88;4978482;28;20467;-76
2023/08/23 01:02:53;;;;;;;4.38;2.60;;;;;;;14.38;57.77;101961.06;4977033;28;20049;-75
2023/08/23 01:05:24;;;;;;;4.75;1.75;;;;;;;14.37;57.67;101962.00;4979501;28;20045;-77
2023/08/23 01:08:00;;;;;;;4.90;2.10;;;;;;;14.32;57.37;101954.28;4978892;28;20050;-75
2023/08/23 01:10:34;;;;;;;3.10;1.30;;;;;;;14.35;57.46;101948.03;4963320;28;20033;-75
2023/08/23 01:13:13;;;;;;;7.72;1.80;;;;;;;14.41;56.96;101946.97;4978088;28;20050;-75
2023/08/23 01:15:39;;;;;;;2.17;1.42;;;;;;;14.32;57.13;101954.28;4978216;28;20555;-75
2023/08/23 01:18:05;;;;;;;1.67;0.90;;;;;;;14.29;57.14;101958.78;4977979;28;20044;-76
2023/08/23 01:20:31;;;;;;;3.25;1.48;;;;;;;14.17;57.32;101954.88;4977915;28;20044;-75
2023/08/23 01:23:27;;;;;;;1.65;0.80;;;;;;;14.18;57.25;101946.03;4990294;28;20125;-75
2023/08/23 01:25:53;;;;;;;2.78;1.02;;;;;;;14.19;57.14;101947.78;4958360;28;20050;-75
2023/08/23 01:28:19;;;;;;;1.67;0.77;;;;;;;14.18;57.00;101950.44;4977292;28;20064;-76
2023/08/23 01:30:47;;;;;;;2.28;1.30;;;;;;;14.06;57.17;101944.75;4977495;28;23675;-75
2023/08/23 01:33:27;;;;;;;2.35;1.15;;;;;;;13.96;57.42;101940.75;4978178;28;20045;-74
2023/08/23 01:35:57;;;;;;;4.78;1.40;;;;;;;13.75;57.40;101947.66;4976766;28;20714;-74
2023/08/23 01:38:24;;;;;;;10.43;1.08;;;;;;;13.62;58.47;101946.38;4976982;28;20039;-74
2023/08/23 01:40:50;;;;;;;3.40;1.10;;;;;;;13.74;58.54;101948.56;4974141;28;20037;-76
2023/08/23 01:43:16;;;;;;;6.35;1.63;;;;;;;13.59;58.61;101946.50;4978124;28;20046;-76
2023/08/23 01:45:41;;;;;;;3.22;1.17;;;;;;;13.69;58.26;101947.88;4991451;28;20040;-77
2023/08/23 01:48:07;;;;;;;6.75;1.83;;;;;;;13.78;58.60;101944.06;4981242;28;20046;-76
2023/08/23 01:50:34;;;;;;;7.57;1.55;;;;;;;13.85;58.10;101949.03;4977167;28;20042;-76
2023/08/23 01:53:00;;;;;;;3.10;1.10;;;;;;;13.94;57.84;101951.34;4975374;28;20547;-75
2023/08/23 01:55:25;;;;;;;30.38;2.83;;;;;;;13.84;58.18;101951.72;4978304;28;20034;-77
2023/08/23 01:57:51;;;;;;;2.78;1.98;;;;;;;13.97;58.26;101952.13;4982478;28;20056;-76
2023/08/23 02:00:16;;;;;;;10.60;2.50;;;;;;;13.84;58.19;101955.19;4983836;28;20061;-76
2023/08/23 02:02:42;;;;;;;7.57;1.70;;;;;;;13.73;58.68;101960.84;4980440;28;20057;-75
2023/08/23 02:05:08;;;;;;;2.58;1.73;;;;;;;13.86;58.27;101957.78;4986430;28;20029;-76
2023/08/23 02:07:36;;;;;;;5.68;2.50;;;;;;;13.91;58.24;101951.44;4979637;28;20099;-75
2023/08/23 02:10:01;;;;;;;2.55;2.00;;;;;;;13.99;58.27;101950.31;4986280;28;20033;-74
2023/08/23 02:12:26;;;;;;;2.50;2.05;;;;;;;14.06;58.11;101952.63;4979310;28;20026;-76
2023/08/23 02:14:52;;;;;;;9.00;2.40;;;;;;;13.96;57.91;101950.41;4985209;28;21299;-76
2023/08/23 02:17:18;;;;;;;2.80;2.08;;;;;;;14.00;58.01;101949.38;4996178;28;20412;-76
2023/08/23 02:19:43;;;;;;;2.65;1.58;;;;;;;13.98;57.88;101953.84;4980825;28;20026;-75
2023/08/23 02:22:09;;;;;;;2.55;2.00;;;;;;;13.85;58.13;101956.94;4985161;28;20527;-76
2023/08/23 02:24:34;;;;;;;2.40;1.67;;;;;;;13.96;58.05;101947.78;4991605;28;20050;-77
2023/08/23 02:27:00;;;;;;;2.92;1.70;;;;;;;14.13;57.82;101953.25;4982723;28;20500;-77
2023/08/23 02:29:26;;;;;;;5.32;1.45;;;;;;;14.16;57.39;101953.13;4975903;28;20072;-74
2023/08/23 02:31:51;;;;;;;2.25;1.38;;;;;;;14.08;57.41;101950.81;4993374;28;20080;-75
2023/08/23 02:34:17;;;;;;;3.92;1.20;;;;;;;14.03;57.45;101951.88;4981491;28;20096;-76
2023/08/23 02:36:42;;;;;;;2.03;1.48;;;;;;;13.96;57.36;101951.25;4995237;28;20034;-75
2023/08/23 02:39:08;;;;;;;1.98;1.38;;;;;;;13.83;57.63;101952.63;4981306;28;20045;-76
2023/08/23 02:41:34;;;;;;;1.40;0.93;;;;;;;13.87;57.59;101947.19;4992259;28;20038;-77
2023/08/23 02:43:59;;;;;;;1.92;1.70;;;;;;;13.76;57.77;101953.75;4978192;28;20503;-75
2023/08/23 02:46:25;;;;;;;2.13;1.65;;;;;;;13.84;57.98;101957.81;4983263;28;20057;-76
2023/08/23 02:48:51;;;;;;;5.00;2.05;;;;;;;13.85;57.70;101958.69;4994113;28;20112;-76
2023/08/23 02:51:16;;;;;;;3.78;1.40;;;;;;;13.92;57.58;101949.69;4996859;28;20033;-76
2023/08/23 02:53:42;;;;;;;3.60;1.80;;;;;;;13.85;57.26;101943.78;4995710;28;20130;-76
2023/08/23 02:56:08;;;;;;;1.75;1.17;;;;;;;13.81;57.59;101950.06;4983425;28;20040;-77
2023/08/23 02:58:33;;;;;;;5.30;1.35;;;;;;;13.61;57.55;101944.69;4990930;28;20037;-75
2023/08/23 03:01:00;;;;;;;2.42;1.13;;;;;;;13.69;57.44;101938.22;4977364;28;20037;-75
2023/08/23 03:03:26;;;;;;;1.75;1.35;;;;;;;13.63;57.75;101937.56;4990994;28;20038;-76
2023/08/23 03:05:56;;;;;;;2.97;1.45;;;;;;;13.63;57.83;101937.56;4982161;28;20468;-76
2023/08/23 03:08:23;;;;;;;6.68;1.85;;;;;;;13.49;58.14;101930.16;4979425;28;20069;-76
2023/08/23 03:10:49;;;;;;;1.92;1.73;;;;;;;13.67;57.55;101929.56;4980346;28;20044;-76
2023/08/23 03:13:14;;;;;;;1.80;1.50;;;;;;;13.73;57.75;101928.47;4984271;28;20042;-75
2023/08/23 03:15:40;;;;;;;2.30;1.63;;;;;;;13.75;57.49;101923.16;4963439;28;20105;-75
2023/08/23 03:18:07;;;;;;;2.65;2.08;;;;;;;13.73;57.60;101917.94;4959371;28;20539;-74
2023/08/23 03:20:33;;;;;;;2.85;1.70;;;;;;;13.63;57.31;101927.06;4981534;28;20058;-75
2023/08/23 03:22:58;;;;;;;3.35;2.40;;;;;;;13.60;57.55;101927.19;4993584;28;20041;-76
2023/08/23 03:25:26;;;;;;;2.22;1.98;;;;;;;13.58;57.50;101921.13;4983396;28;20057;-76
2023/08/23 03:27:57;;;;;;;5.05;2.40;;;;;;;13.55;57.39;101929.09;4978547;28;20115;-75
2023/08/23 03:30:22;;;;;;;2.83;2.17;;;;;;;13.44;57.61;101924.22;4980669;28;20037;-75
2023/08/23 03:32:48;;;;;;;5.03;3.17;;;;;;;13.54;57.82;101928.25;4972718;28;20048;-75
2023/08/23 03:35:15;;;;;;;3.53;2.72;;;;;;;13.35;58.17;101925.41;4984312;28;20025;-73
2023/08/23 03:37:40;;;;;;;5.63;2.53;;;;;;;13.49;57.87;101924.91;4975454;28;20400;-76
2023/08/23 03:40:06;;;;;;;2.78;2.03;;;;;;;13.44;58.01;101927.69;4993391;28;20069;-76
2023/08/23 03:42:31;;;;;;;3.10;2.80;;;;;;;13.47;57.80;101930.25;4973947;28;20034;-74
2023/08/23 03:44:57;;;;;;;8.95;3.30;;;;;;;13.36;57.79;101929.75;4972641;28;20508;-75
2023/08/23 03:47:23;;;;;;;13.60;2.60;;;;;;;13.07;58.44;101929.00;4980039;28;20083;-75
2023/08/23 03:49:51;;;;;;;4.07;2.45;;;;;;;13.17;58.09;101926.91;4994545;28;20038;-76
2023/08/23 03:52:17;;;;;;;4.00;2.10;;;;;;;13.16;58.27;101932.19;4964607;28;20416;-75
2023/08/23 03:54:42;;;;;;;8.20;2.55;;;;;;;13.24;58.13;101930.19;4995787;28;20034;-76
2023/08/23 03:57:08;;;;;;;5.32;3.35;;;;;;;13.04;58.50;101929.06;4981679;28;20159;-76
2023/08/23 03:59:33;;;;;;;25.58;3.95;;;;;;;13.13;58.53;101932.31;4966487;28;20132;-78
2023/08/23 04:01:59;;;;;;;4.15;3.10;;;;;;;13.10;58.66;101928.88;4963097;28;20663;-75
2023/08/23 04:04:25;;;;;;;3.60;3.15;;;;;;;13.07;58.61;101926.38;4992263;28;20050;-76
2023/08/23 04:06:50;;;;;;;3.95;2.45;;;;;;;13.22;58.61;101924.13;4984074;28;20106;-75
2023/08/23 04:09:16;;;;;;;11.27;3.33;;;;;;;13.25;58.46;101926.63;4994203;28;20048;-76
2023/08/23 04:11:42;;;;;;;13.35;3.10;;;;;;;13.11;58.51;101920.06;4981047;28;20038;-75
2023/08/23 04:14:07;;;;;;;5.93;2.58;;;;;;;13.07;58.32;101922.88;4998689;28;20050;-75
2023/08/23 04:16:33;;;;;;;2.83;2.33;;;;;;;13.05;58.65;101920.31;4981530;28;20049;-73
2023/08/23 04:18:59;;;;;;;4.00;2.30;;;;;;;13.06;58.63;101922.00;4982789;28;20041;-75
2023/08/23 04:21:28;;;;;;;4.75;2.60;;;;;;;13.16;58.62;101924.31;4981233;28;20121;-76
2023/08/23 04:23:54;;;;;;;6.45;3.55;;;;;;;13.15;58.61;101927.88;4977300;28;20041;-75
2023/08/23 04:26:19;;;;;;;28.60;4.03;;;;;;;12.90;58.92;101923.44;4963608;28;20034;-76
2023/08/23 04:28:46;;;;;;;3.90;2.40;;;;;;;13.01;58.82;101929.19;4978337;28;20042;-75
2023/08/23 04:31:12;;;;;;;3.53;2.70;;;;;;;13.18;58.55;101925.97;4994510;28;20034;-76
2023/08/23 04:33:48;;;;;;;3.15;2.85;;;;;;;13.32;58.51;101920.28;4978189;28;20034;-77
2023/08/23 04:36:14;;;;;;;3.65;2.58;;;;;;;13.44;58.13;101922.44;4998968;28;20061;-75
2023/08/23 04:38:40;;;;;;;3.85;3.35;;;;;;;13.42;57.65;101920.78;5014350;28;20053;-75
2023/08/23 04:41:06;;;;;;;32.42;4.43;;;;;;;13.37;58.20;101920.97;5019311;28;20030;-75
2023/08/23 04:43:35;;;;;;;4.80;3.72;;;;;;;13.63;57.85;101927.06;5021747;28;20049;-74
2023/08/23 04:46:06;;;;;;;6.50;4.38;;;;;;;13.68;57.71;101925.16;5004510;28;20950;-75
2023/08/23 04:48:32;;;;;;;7.13;4.90;;;;;;;13.82;57.58;101922.88;5005637;28;20113;-75
2023/08/23 04:50:58;;;;;;;9.10;4.78;;;;;;;13.91;57.24;101925.16;4986646;28;20046;-75
2023/08/23 04:53:27;;;;;;;7.28;4.72;;;;;;;13.92;56.90;101926.88;5004284;28;20057;-75
2023/08/23 04:55:57;;;;;;;7.45;5.95;;;;;;;13.89;57.38;101926.97;4973785;28;21547;-74
2023/08/23 04:58:27;;;;;;;5.63;4.63;;;;;;;14.01;57.18;101917.78;4997264;28;20074;-76
2023/08/23 05:00:58;;;;;;;7.90;5.75;;;;;;;13.78;57.78;101923.88;5002947;28;20129;-76
2023/08/23 05:03:27;;;;;;;7.28;5.95;;;;;;;13.84;57.63;101923.66;4981880;28;20030;-76
2023/08/23 05:05:52;;;;;;;6.85;5.82;;;;;;;13.53;58.61;101921.28;4991530;28;20037;-76
2023/08/23 05:08:18;;;;;;;6.72;5.53;;;;;;;13.83;57.90;101911.47;4978786;28;20044;-77
2023/08/23 05:10:44;;;;;;;9.68;5.00;;;;;;;13.73;58.34;101915.31;4979314;28;20905;-76
2023/08/23 05:13:09;;;;;;;7.35;5.80;;;;;;;13.87;58.19;101914.81;4980216;28;20088;-75
2023/08/23 05:15:35;;;;;;;6.65;5.13;;;;;;;13.96;58.12;101911.81;4981845;28;20067;-77
2023/08/23 05:18:00;;;;;;;5.20;4.80;;;;;;;14.25;57.87;101921.22;4960885;28;20111;-76
2023/08/23 05:20:27;;;;;;;8.98;6.28;;;;;;;14.37;57.10;101919.91;4975714;28;20045;-76
2023/08/23 05:22:53;;;;;;;9.95;5.53;;;;;;;14.24;57.93;101930.03;4974503;28;20115;-75
2023/08/23 05:25:19;;;;;;;7.57;6.07;;;;;;;14.48;57.90;101927.41;4981510;28;20044;-74
2023/08/23 05:27:45;;;;;;;8.38;7.30;;;;;;;14.54;57.06;101927.13;4981861;28;20038;-75
2023/08/23 05:30:11;;;;;;;8.57;6.38;;;;;;;14.75;57.36;101936.81;4979300;28;20033;-77
2023/08/23 05:32:37;;;;;;;10.23;6.65;;;;;;;14.56;56.84;101930.56;4982100;28;20057;-76
2023/08/23 05:35:03;;;;;;;8.68;7.15;;;;;;;14.52;57.80;101939.50;4966417;28;20800;-76
2023/08/23 05:37:28;;;;;;;9.68;5.90;;;;;;;14.74;57.66;101931.59;4966282;28;20632;-75
2023/08/23 05:39:54;;;;;;;13.05;7.35;;;;;;;14.73;56.80;101924.63;4995020;28;20034;-76
2023/08/23 05:42:22;;;;;;;7.90;5.88;;;;;;;14.81;57.22;101932.19;4995142;28;20123;-76
2023/08/23 05:44:48;;;;;;;11.50;8.07;;;;;;;14.52;57.75;101934.22;4967506;28;20021;-77
2023/08/23 05:47:13;;;;;;;10.15;7.47;;;;;;;14.73;57.54;101928.13;4983046;28;20695;-74
2023/08/23 05:49:40;;;;;;;9.90;7.30;;;;;;;14.99;57.14;101928.78;4984997;28;20022;-75
2023/08/23 05:52:06;;;;;;;15.73;8.48;;;;;;;15.23;57.16;101926.94;4991629;28;20034;-77
2023/08/23 05:54:31;;;;;;;11.43;7.57;;;;;;;15.40;56.74;101922.75;4981495;28;20685;-77
2023/08/23 05:56:59;;;;;;;11.00;7.45;;;;;;;15.45;56.29;101918.97;4984855;28;20707;-76
2023/08/23 05:59:28;;;;;;;13.40;8.18;;;;;;;15.51;56.40;101916.06;4967096;28;20037;-76
2023/08/23 06:01:53;;;;;;;12.13;6.85;;;;;;;15.71;56.36;101915.16;4980171;28;20147;-76
2023/08/23 06:04:19;;;;;;;9.80;6.95;;;;;;;15.79;55.06;101920.06;4997237;28;20068;-77
2023/08/23 06:06:47;;;;;;;10.20;7.53;;;;;;;15.33;56.11;101923.00;5005928;28;20041;-76
2023/08/23 06:09:13;;;;;;;14.10;8.40;;;;;;;15.68;56.27;101917.06;4993541;28;20093;-76
2023/08/23 06:11:39;;;;;;;14.23;8.95;;;;;;;15.54;56.41;101915.91;4979026;28;20026;-76
2023/08/23 06:14:19;;;;;;;13.10;8.05;;;;;;;15.97;55.74;101919.25;4973100;28;20057;-75
2023/08/23 06:16:45;;;;;;;11.82;6.30;;;;;;;16.11;55.59;101925.69;4980000;28;20030;-75
2023/08/23 06:19:11;;;;;;;18.58;8.32;;;;;;;16.48;54.30;101918.66;4962692;28;20046;-76
2023/08/23 06:21:38;;;;;;;13.48;7.78;;;;;;;16.71;53.18;101914.88;4981647;28;20061;-75
2023/08/23 06:24:04;;;;;;;11.23;7.75;;;;;;;16.75;53.56;101917.31;4961040;28;20058;-75
2023/08/23 06:26:29;;;;;;;13.65;8.00;;;;;;;16.54;54.34;101918.38;4985144;28;20487;-75
2023/08/23 06:28:55;;;;;;;11.07;6.55;;;;;;;16.71;54.33;101915.75;4994682;28;20045;-75
2023/08/23 06:31:21;;;;;;;9.13;6.95;;;;;;;16.97;54.45;101922.38;4981163;28;20034;-74
2023/08/23 06:33:46;;;;;;;9.85;6.38;;;;;;;16.95;53.97;101923.41;4965334;28;20084;-74
2023/08/23 06:36:12;;;;;;;10.32;6.85;;;;;;;17.03;53.62;101922.06;4966041;28;20030;-75
2023/08/23 06:38:37;;;;;;;16.20;7.32;;;;;;;17.37;52.41;101930.06;4994434;28;20034;-74
2023/08/23 06:41:03;;;;;;;8.45;6.35;;;;;;;16.92;52.85;101944.69;4991542;28;20038;-74
2023/08/23 06:43:28;;;;;;;15.23;6.75;;;;;;;16.86;53.52;101939.69;4976546;28;20101;-77
2023/08/23 06:45:54;;;;;;;16.15;6.93;;;;;;;17.22;53.08;101934.34;4977807;28;20037;-76
2023/08/23 06:48:20;;;;;;;6.22;5.03;;;;;;;17.56;53.18;101927.31;4971369;28;20039;-76
2023/08/23 06:50:46;;;;;;;9.82;6.63;;;;;;;17.60;51.81;101931.50;4998517;28;20029;-76
2023/08/23 06:53:12;;;;;;;8.35;6.15;;;;;;;18.02;51.42;101933.63;4976577;28;20044;-77
2023/08/23 06:55:41;;;;;;;9.55;5.57;;;;;;;19.38;47.50;101925.88;4976206;28;20394;-76
2023/08/23 06:58:10;;;;;;;6.03;4.55;;;;;;;20.82;46.09;101921.13;4971855;28;20037;-76
2023/08/23 07:00:36;;;;;;;8.82;6.10;;;;;;;20.22;45.54;101933.06;4980445;28;20052;-75
2023/08/23 07:03:03;;;;;;;9.13;5.60;;;;;;;20.07;46.64;101934.84;4972666;28;20052;-75
2023/08/23 07:05:29;;;;;;;10.20;5.25;;;;;;;20.32;45.45;101935.00;4990531;28;20057;-73
2023/08/23 07:07:57;;;;;;;6.55;4.30;;;;;;;21.47;43.51;101933.56;4992918;28;20076;-73
2023/08/23 07:10:22;;;;;;;6.72;4.38;;;;;;;21.25;42.96;101940.38;4973088;28;20101;-76
2023/08/23 07:12:48;;;;;;;9.23;4.30;;;;;;;21.11;44.29;101938.66;4980380;28;20067;-75
2023/08/23 07:15:13;;;;;;;10.88;5.20;;;;;;;21.15;43.61;101933.97;4977754;28;20078;-75
2023/08/23 07:17:39;;;;;;;8.40;4.35;;;;;;;22.74;40.87;101928.84;4975058;28;20045;-76
2023/08/23 07:20:06;;;;;;;9.93;4.25;;;;;;;24.11;38.76;101934.22;4977813;28;20488;-75
2023/08/23 07:22:32;;;;;;;7.13;5.00;;;;;;;24.68;36.36;101930.38;4971976;28;20436;-76
2023/08/23 07:24:57;;;;;;;6.50;4.32;;;;;;;24.89;35.30;101934.91;4973137;28;20509;-73
2023/08/23 07:27:23;;;;;;;9.02;3.92;;;;;;;23.21;38.27;101940.38;4991044;28;20037;-74
2023/08/23 07:29:49;;;;;;;5.68;4.57;;;;;;;23.23;39.25;101946.44;4974830;28;20030;-76
2023/08/23 07:32:14;;;;;;;7.45;3.35;;;;;;;23.21;39.16;101937.72;4980595;28;20166;-77
2023/08/23 07:34:40;;;;;;;6.18;4.47;;;;;;;22.02;40.78;101940.28;4965747;28;20037;-78
2023/08/23 07:37:06;;;;;;;5.43;2.92;;;;;;;24.19;38.57;101937.97;4995680;28;20093;-78
2023/08/23 07:39:35;;;;;;;5.72;5.15;;;;;;;25.03;35.63;101938.09;4996474;28;20071;-78
2023/08/23 07:42:00;;;;;;;7.10;4.88;;;;;;;23.94;36.85;101955.09;4981130;28;20307;-78
2023/08/23 07:44:25;;;;;;;9.65;3.85;;;;;;;26.01;32.91;101944.75;4963895;28;20642;-77
2023/08/23 07:46:51;;;;;;;4.22;3.42;;;;;;;26.87;32.08;101944.13;4979082;28;20029;-77
2023/08/23 07:49:17;;;;;;;7.50;2.75;;;;;;;28.41;29.96;101948.13;4986447;28;20601;-76
2023/08/23 07:51:43;;;;;;;4.70;4.18;;;;;;;27.84;29.76;101957.28;4976718;28;20030;-79
2023/08/23 07:54:08;;;;;;;3.40;3.10;;;;;;;26.67;31.63;101956.69;4976351;28;20429;-78
2023/08/23 07:56:34;;;;;;;5.03;2.78;;;;;;;27.23;31.26;101955.13;4990816;28;21483;-77
2023/08/23 07:59:00;;;;;;;5.13;2.80;;;;;;;27.73;29.89;101954.78;4978949;28;20172;-78
2023/08/23 08:01:26;;;;;;;5.65;2.50;;;;;;;28.36;29.02;101959.34;4976413;28;20030;-79
2023/08/23 08:03:55;;;;;;;4.90;3.00;;;;;;;27.93;29.78;101961.75;4980909;28;20065;-76
2023/08/23 08:06:20;;;;;;;5.82;2.53;;;;;;;29.53;28.53;101955.53;4980233;28;20488;-78
2023/08/23 08:08:46;;;;;;;3.72;2.55;;;;;;;30.97;25.95;101947.22;4960241;28;20045;-76
2023/08/23 08:11:12;;;;;;;3.70;2.33;;;;;;;30.30;26.41;101945.53;4963409;28;20069;-78
2023/08/23 08:13:38;;;;;;;3.47;2.35;;;;;;;30.67;26.82;101948.75;4993720;28;20996;-78
2023/08/23 08:16:09;;;;;;;2.88;2.15;;;;;;;29.27;27.10;101952.88;4981919;28;20033;-81
2023/08/23 08:18:35;;;;;;;2.20;1.35;;;;;;;30.44;26.35;101951.25;4993762;28;20075;-77
2023/08/23 08:21:01;;;;;;;4.13;1.33;;;;;;;29.56;26.58;101942.59;4978992;28;20923;-77
2023/08/23 08:23:26;;;;;;;2.13;1.25;;;;;;;28.94;27.33;101958.00;4975902;28;20621;-79
2023/08/23 08:25:51;;;;;;;3.05;1.25;;;;;;;29.87;26.20;101963.59;4987934;28;20524;-78
2023/08/23 08:28:17;;;;;;;3.97;1.48;;;;;;;29.65;26.00;101954.25;4989189;28;20115;-78
2023/08/23 08:30:43;;;;;;;2.67;1.30;;;;;;;29.45;26.59;101963.56;4957699;28;20038;-77
2023/08/23 08:33:08;;;;;;;2.78;0.98;;;;;;;29.40;27.29;101964.06;4974064;28;20480;-79
2023/08/23 08:35:34;;;;;;;1.70;0.75;;;;;;;28.54;27.62;101964.72;4990825;28;21560;-77
2023/08/23 08:37:59;;;;;;;1.67;0.90;;;;;;;28.15;28.75;101961.50;4977302;28;20076;-77
2023/08/23 08:40:25;;;;;;;2.08;1.20;;;;;;;28.41;28.43;101964.28;4975853;28;20464;-77
2023/08/23 08:42:52;;;;;;;2.50;1.35;;;;;;;28.82;27.47;101959.28;4975710;28;20038;-77
2023/08/23 08:45:20;;;;;;;2.58;0.98;;;;;;;30.02;27.58;101960.25;4978779;28;20048;-78
2023/08/23 08:47:46;;;;;;;2.60;1.20;;;;;;;29.81;25.95;101964.25;4973838;28;20112;-75
2023/08/23 08:50:13;;;;;;;3.70;1.02;;;;;;;28.73;28.26;101961.91;4977146;28;20042;-78
2023/08/23 08:52:42;;;;;;;2.72;1.00;;;;;;;28.44;28.58;101964.81;4976407;28;20050;-79
2023/08/23 08:55:10;;;;;;;3.97;0.88;;;;;;;28.51;28.19;101962.34;4978990;28;20041;-80
2023/08/23 08:57:36;;;;;;;2.15;0.80;;;;;;;27.84;28.62;101967.19;4958009;28;20078;-80
2023/08/23 09:00:04;;;;;;;1.42;0.85;;;;;;;26.48;30.89;101968.25;4990821;28;20030;-79
2023/08/23 09:02:32;;;;;;;2.75;0.80;;;;;;;25.40;32.31;101959.03;4975160;28;20074;-78
2023/08/23 09:04:58;;;;;;;5.15;1.05;;;;;;;25.09;32.35;101968.84;4978493;28;20805;-79
2023/08/23 09:07:24;;;;;;;2.25;1.02;;;;;;;26.24;31.83;101964.13;4982697;28;20030;-77
2023/08/23 09:09:50;;;;;;;2.17;0.60;;;;;;;26.90;30.94;101962.63;4979112;28;20042;-77
2023/08/23 09:12:16;;;;;;;1.40;0.70;;;;;;;26.90;30.56;101974.19;4971146;28;20490;-76
2023/08/23 09:14:49;;;;;;;0.95;0.43;;;;;;;25.78;30.83;101960.19;4994795;28;20080;-76
2023/08/23 09:17:14;;;;;;;1.05;0.32;;;;;;;25.86;31.36;101954.16;4993508;28;20133;-76
2023/08/23 09:19:40;;;;;;;1.65;0.38;;;;;;;25.24;32.78;101961.31;4977973;28;20131;-76
2023/08/23 09:22:06;;;;;;;1.35;0.60;;;;;;;24.05;34.32;101972.94;4981861;28;20183;-76
2023/08/23 09:24:33;;;;;;;2.15;0.43;;;;;;;24.90;32.90;101968.66;4978998;28;20462;-74
2023/08/23 09:26:59;;;;;;;5.68;0.50;;;;;;;24.53;33.60;101966.41;4998981;28;20030;-75
2023/08/23 09:29:25;;;;;;;2.05;0.65;;;;;;;24.16;34.50;101980.91;4997472;28;20686;-75
2023/08/23 09:31:51;;;;;;;3.53;0.50;;;;;;;24.34;34.54;101972.38;4981068;28;20030;-75
2023/08/23 09:34:17;;;;;;;1.58;0.40;;;;;;;24.62;34.74;101965.66;4980372;28;20139;-75
2023/08/23 09:36:42;;;;;;;5.65;0.60;;;;;;;24.24;34.80;101970.47;4996089;28;20038;-76
2023/08/23 09:39:10;;;;;;;2.28;0.60;;;;;;;24.62;33.91;101971.84;4980680;28;20093;-75
2023/08/23 09:41:42;;;;;;;2.80;0.85;;;;;;;25.16;33.32;101959.31;4992468;28;20080;-76
2023/08/23 09:44:08;;;;;;;1.98;0.68;;;;;;;25.17;32.83;101954.81;4977397;28;20184;-75
2023/08/23 09:46:36;;;;;;;2.78;0.45;;;;;;;25.19;33.32;101952.84;4973432;28;22021;-77
2023/08/23 09:49:07;;;;;;;1.15;0.45;;;;;;;24.93;33.39;101950.56;4996155;28;20041;-75
2023/08/23 09:51:35;;;;;;;1.60;0.30;;;;;;;25.12;33.14;101951.69;4977561;28;20511;-76
2023/08/23 09:54:12;;;;;;;1.90;0.40;;;;;;;25.07;33.59;101959.25;4974963;28;20088;-74
2023/08/23 09:56:41;;;;;;;1.10;0.57;;;;;;;25.76;33.40;101946.09;4978625;28;20037;-76
2023/08/23 09:59:08;;;;;;;1.38;0.50;;;;;;;26.34;32.01;101944.56;4976890;28;20715;-76
2023/08/23 10:01:33;;;;;;;2.63;0.40;;;;;;;26.59;31.49;101941.34;4976162;28;20045;-75
2023/08/23 10:03:59;;;;;;;2.22;0.52;;;;;;;26.62;31.67;101946.41;4992345;28;20095;-76
2023/08/23 10:06:25;;;;;;;4.43;0.50;;;;;;;25.57;30.80;101949.53;4974838;28;20030;-76
2023/08/23 10:08:51;;;;;;;1.25;0.73;;;;;;;26.11;30.17;101944.78;4978198;28;20883;-76
2023/08/23 10:11:18;;;;;;;1.30;0.55;;;;;;;26.57;30.99;101939.75;4994568;28;20033;-76
2023/08/23 10:13:45;;;;;;;2.40;0.70;;;;;;;26.39;30.54;101943.13;4991713;28;20052;-76
2023/08/23 10:16:13;;;;;;;4.15;1.20;;;;;;;25.76;31.23;101934.56;4990472;28;20033;-76
2023/08/23 10:18:40;;;;;;;2.03;1.10;;;;;;;26.43;31.08;101938.34;4991014;28;20053;-75
2023/08/23 10:21:05;;;;;;;4.53;0.70;;;;;;;26.56;30.83;101932.69;4958030;28;20049;-77
2023/08/23 10:23:34;;;;;;;3.75;1.30;;;;;;;24.96;32.03;101930.72;4960265;28;20100;-75
2023/08/23 10:25:59;;;;;;;8.15;1.58;;;;;;;25.24;33.35;101939.91;4976307;28;20087;-75
2023/08/23 10:28:25;;;;;;;2.35;0.82;;;;;;;25.63;31.61;101935.63;4973764;28;20151;-74
2023/08/23 10:30:52;;;;;;;1.40;0.90;;;;;;;25.57;32.21;101936.16;4975860;28;20169;-74
2023/08/23 10:33:19;;;;;;;2.58;0.98;;;;;;;26.06;31.02;101930.97;4986108;28;20444;-75
2023/08/23 10:35:47;;;;;;;4.80;0.95;;;;;;;25.28;32.28;101933.31;4956392;28;20121;-75
2023/08/23 10:38:13;;;;;;;2.47;1.25;;;;;;;24.94;33.31;101944.22;4970674;28;20124;-76
2023/08/23 10:40:40;;;;;;;4.70;1.20;;;;;;;24.41;33.76;101944.19;4972097;28;20034;-74
2023/08/23 10:43:11;;;;;;;4.00;1.45;;;;;;;24.55;33.53;101929.69;4987971;28;20058;-75
2023/08/23 10:46:02;;;;;;;6.28;1.80;;;;;;;24.60;33.46;101925.69;4957719;28;20089;-74
2023/08/23 10:48:31;;;;;;;4.20;2.13;;;;;;;25.31;32.20;101932.19;4971174;28;20049;-75
2023/08/23 10:50:57;;;;;;;4.78;1.42;;;;;;;25.45;33.20;101922.00;4993910;28;20040;-74
2023/08/23 10:53:22;;;;;;;3.40;0.93;;;;;;;24.87;33.34;101915.47;4988560;28;20046;-75
2023/08/23 10:55:48;;;;;;;3.00;0.82;;;;;;;25.35;32.41;101915.78;4961096;28;20116;-75
2023/08/23 10:58:15;;;;;;;3.78;1.08;;;;;;;25.51;32.62;101914.41;4961806;28;20034;-75
2023/08/23 11:00:42;;;;;;;6.00;1.50;;;;;;;25.68;31.59;101913.78;4979443;28;20734;-75
2023/08/23 11:03:08;;;;;;;2.75;1.50;;;;;;;25.23;31.88;101901.63;4990443;28;20074;-74
2023/08/23 11:05:34;;;;;;;2.25;1.08;;;;;;;24.89;32.32;101908.16;4977618;28;20065;-75
2023/08/23 11:08:00;;;;;;;3.72;1.10;;;;;;;23.98;33.79;101910.31;4978000;28;20127;-76
2023/08/23 11:10:26;;;;;;;5.55;1.20;;;;;;;24.81;33.16;101911.47;4977144;28;20041;-75
2023/08/23 11:12:52;;;;;;;2.03;0.88;;;;;;;25.72;31.29;101899.16;4973601;28;20054;-76
2023/08/23 11:15:19;;;;;;;1.73;1.10;;;;;;;26.16;30.49;101897.00;4988965;28;20159;-74
2023/08/23 11:17:46;;;;;;;3.05;0.60;;;;;;;27.22;31.49;101894.38;4989742;28;20096;-73
2023/08/23 11:20:13;;;;;;;3.47;0.43;;;;;;;26.48;30.38;101898.56;4989453;28;20046;-76
2023/08/23 11:22:39;;;;;;;1.38;0.65;;;;;;;26.39;30.05;101899.41;4988488;28;20048;-76